Weather at Inyokern Airport

Public forecast

Using degrees Fahrenheit for public forecast. Weather courtesy of forecast.io.

Current aviation weather report (METAR) for Inyokern Airport

Report is more than 6 hours old.

Retrieved 2013/11/04 19:55 UTC (7 years ago):

KIYK 041955Z 34010G15KT 20SM FEW200 19/ A2982 RMK LAST

Closest aviation forecast (TAF) to Inyokern Airport

Forecast is more than 12 hours old.

Closest forecast is China Lake Naws (Armitage Field) Airport, 6.9 nm (12.8 km) ENE. Retrieved 2016/02/03 15:51 UTC (5 years ago):

TAF KNID 031500Z 0315/0415 VRB05KT 9999 SKC QNH3032INS BECMG 0323/0401 VRB06KT 9999 SCT150 BKN250 QNH3033INS BECMG 0411/0413 VRB05KT 9999 FEW250 QNH3036INS TX12/0323Z TNM04/0414Z